EZY275 EGKK-EGHH
Flight info
| Callsign | EZY275 |
|---|---|
| Flight time | N/A |
| Altitude | 6000 |
| Route | IMVUR N63 SAM DCT BIA |
| Aircraft | A320/M-SDE3FGHIRWY/LB1 |
Departure
| Time | 2026-04-29 18:39 |
|---|---|
| Airport | London Gatwick Airport (EGKK) |
Arrival
| Time | N/A |
|---|---|
| Airport | Bournemouth Airport (EGHH) |
| Time | Latitude | Longitude | Altitude | Speed | Heading |
|---|---|---|---|---|---|
| 2026-04-29 18:09 | 51.15893 | -0.17230 | 205 ft | 0 kts | 348° |
| 2026-04-29 18:17 | 51.15870 | -0.17222 | 215 ft | 4 kts | 348° |
| 2026-04-29 18:17 | 51.15843 | -0.17213 | 214 ft | 4 kts | 348° |
| 2026-04-29 18:17 | 51.15822 | -0.17205 | 206 ft | 4 kts | 330° |
| 2026-04-29 18:18 | 51.15809 | -0.17178 | 205 ft | 4 kts | 268° |
| 2026-04-29 18:18 | 51.15811 | -0.17150 | 205 ft | 0 kts | 258° |
| 2026-04-29 18:22 | 51.15810 | -0.17156 | 214 ft | 2 kts | 258° |
| 2026-04-29 18:22 | 51.15801 | -0.17228 | 205 ft | 11 kts | 259° |
| 2026-04-29 18:22 | 51.15797 | -0.17269 | 205 ft | 0 kts | 260° |
| 2026-04-29 18:23 | 51.15790 | -0.17328 | 209 ft | 10 kts | 258° |
| 2026-04-29 18:23 | 51.15768 | -0.17478 | 207 ft | 19 kts | 258° |
| 2026-04-29 18:23 | 51.15733 | -0.17553 | 205 ft | 6 kts | 160° |
| 2026-04-29 18:23 | 51.15704 | -0.17513 | 208 ft | 6 kts | 144° |
| 2026-04-29 18:24 | 51.15669 | -0.17485 | 211 ft | 5 kts | 158° |
| 2026-04-29 18:24 | 51.15636 | -0.17465 | 209 ft | 5 kts | 163° |
| 2026-04-29 18:24 | 51.15580 | -0.17444 | 209 ft | 12 kts | 167° |
| 2026-04-29 18:24 | 51.15523 | -0.17423 | 210 ft | 2 kts | 167° |
| 2026-04-29 18:25 | 51.15510 | -0.17418 | 205 ft | 2 kts | 167° |
| 2026-04-29 18:25 | 51.15498 | -0.17414 | 205 ft | 2 kts | 167° |
| 2026-04-29 18:25 | 51.15486 | -0.17410 | 205 ft | 5 kts | 169° |
| 2026-04-29 18:25 | 51.15441 | -0.17397 | 205 ft | 7 kts | 171° |
| 2026-04-29 18:26 | 51.15365 | -0.17333 | 210 ft | 14 kts | 117° |
| 2026-04-29 18:26 | 51.15343 | -0.17236 | 208 ft | 5 kts | 165° |
| 2026-04-29 18:26 | 51.15330 | -0.17232 | 205 ft | 5 kts | 167° |
| 2026-04-29 18:26 | 51.15257 | -0.17234 | 209 ft | 11 kts | 210° |
| 2026-04-29 18:27 | 51.15231 | -0.17330 | 211 ft | 9 kts | 256° |
| 2026-04-29 18:27 | 51.15212 | -0.17463 | 208 ft | 14 kts | 257° |
| 2026-04-29 18:27 | 51.15197 | -0.17583 | 208 ft | 9 kts | 262° |
| 2026-04-29 18:27 | 51.15200 | -0.17703 | 208 ft | 18 kts | 288° |
| 2026-04-29 18:28 | 51.15236 | -0.17901 | 205 ft | 17 kts | 267° |
| 2026-04-29 18:28 | 51.15219 | -0.18022 | 205 ft | 0 kts | 253° |
| 2026-04-29 18:28 | 51.15217 | -0.18034 | 205 ft | 6 kts | 255° |
| 2026-04-29 18:28 | 51.15201 | -0.18152 | 215 ft | 28 kts | 259° |
| 2026-04-29 18:29 | 51.15169 | -0.18419 | 212 ft | 20 kts | 259° |
| 2026-04-29 18:29 | 51.15153 | -0.18553 | 205 ft | 12 kts | 259° |
| 2026-04-29 18:29 | 51.15129 | -0.18740 | 216 ft | 13 kts | 256° |
| 2026-04-29 18:29 | 51.15109 | -0.18875 | 209 ft | 12 kts | 258° |
| 2026-04-29 18:30 | 51.15091 | -0.19006 | 210 ft | 12 kts | 258° |
| 2026-04-29 18:30 | 51.15075 | -0.19132 | 205 ft | 11 kts | 258° |
| 2026-04-29 18:30 | 51.15047 | -0.19238 | 214 ft | 10 kts | 221° |
| 2026-04-29 18:30 | 51.14995 | -0.19267 | 211 ft | 6 kts | 197° |
| 2026-04-29 18:31 | 51.14954 | -0.19352 | 213 ft | 17 kts | 254° |
| 2026-04-29 18:31 | 51.14929 | -0.19524 | 207 ft | 13 kts | 257° |
| 2026-04-29 18:31 | 51.14910 | -0.19664 | 212 ft | 12 kts | 257° |
| 2026-04-29 18:31 | 51.14891 | -0.19797 | 207 ft | 15 kts | 257° |
| 2026-04-29 18:32 | 51.14851 | -0.20080 | 207 ft | 33 kts | 257° |
| 2026-04-29 18:32 | 51.14779 | -0.20607 | 207 ft | 1 kts | 258° |
| 2026-04-29 18:32 | 51.14769 | -0.20682 | 212 ft | 19 kts | 258° |
| 2026-04-29 18:33 | 51.14741 | -0.20898 | 216 ft | 19 kts | 258° |
| 2026-04-29 18:33 | 51.14712 | -0.21102 | 214 ft | 18 kts | 258° |
| 2026-04-29 18:33 | 51.14699 | -0.21199 | 205 ft | 1 kts | 258° |
| 2026-04-29 18:33 | 51.14695 | -0.21227 | 209 ft | 4 kts | 258° |
| 2026-04-29 18:34 | 51.14694 | -0.21232 | 213 ft | 0 kts | 258° |
| 2026-04-29 18:34 | 51.14689 | -0.21274 | 207 ft | 6 kts | 257° |
| 2026-04-29 18:34 | 51.14657 | -0.21332 | 207 ft | 8 kts | 204° |
| 2026-04-29 18:35 | 51.14618 | -0.21332 | 205 ft | 0 kts | 163° |
| 2026-04-29 18:37 | 51.14617 | -0.21331 | 205 ft | 1 kts | 163° |
| 2026-04-29 18:37 | 51.14555 | -0.21293 | 214 ft | 13 kts | 151° |
| 2026-04-29 18:37 | 51.14521 | -0.21167 | 208 ft | 13 kts | 82° |
| 2026-04-29 18:38 | 51.14540 | -0.21027 | 216 ft | 13 kts | 77° |
| 2026-04-29 18:38 | 51.14566 | -0.20849 | 208 ft | 33 kts | 77° |
| 2026-04-29 18:38 | 51.14672 | -0.20096 | 212 ft | 103 kts | 78° |
| 2026-04-29 18:38 | 51.14857 | -0.18692 | 281 ft | 150 kts | 79° |
| 2026-04-29 18:39 | 51.15004 | -0.17089 | 1060 ft | 143 kts | 79° |
| 2026-04-29 18:39 | 51.15219 | -0.15503 | 1649 ft | 159 kts | 78° |
| 2026-04-29 18:39 | 51.15484 | -0.13671 | 2249 ft | 178 kts | 79° |
| 2026-04-29 18:39 | 51.15771 | -0.11674 | 2850 ft | 192 kts | 80° |
| 2026-04-29 18:40 | 51.16070 | -0.09575 | 2983 ft | 195 kts | 80° |
| 2026-04-29 18:40 | 51.16371 | -0.07456 | 3000 ft | 196 kts | 80° |
| 2026-04-29 18:40 | 51.16917 | -0.05481 | 3009 ft | 203 kts | 51° |
| 2026-04-29 18:40 | 51.18247 | -0.04531 | 3012 ft | 225 kts | 12° |
| 2026-04-29 18:41 | 51.22530 | -0.07799 | 3014 ft | 263 kts | 291° |
| 2026-04-29 18:41 | 51.22707 | -0.10816 | 3020 ft | 289 kts | 262° |
| 2026-04-29 18:42 | 51.22420 | -0.14023 | 3011 ft | 294 kts | 257° |
| 2026-04-29 18:42 | 51.22036 | -0.17238 | 3008 ft | 296 kts | 256° |
| 2026-04-29 18:42 | 51.21624 | -0.20447 | 3013 ft | 295 kts | 256° |
| 2026-04-29 18:42 | 51.21215 | -0.23645 | 3012 ft | 294 kts | 256° |
| 2026-04-29 18:43 | 51.20818 | -0.26843 | 3014 ft | 295 kts | 256° |
| 2026-04-29 18:43 | 51.20433 | -0.30052 | 3012 ft | 295 kts | 257° |
| 2026-04-29 18:43 | 51.20056 | -0.33263 | 3016 ft | 295 kts | 257° |
| 2026-04-29 18:43 | 51.19672 | -0.36486 | 3190 ft | 299 kts | 256° |
| 2026-04-29 18:44 | 51.19253 | -0.39758 | 3867 ft | 301 kts | 255° |
| 2026-04-29 18:44 | 51.18834 | -0.42943 | 3986 ft | 294 kts | 255° |
| 2026-04-29 18:44 | 51.18415 | -0.46121 | 4007 ft | 292 kts | 255° |
| 2026-04-29 18:44 | 51.17996 | -0.49279 | 4010 ft | 292 kts | 255° |
| 2026-04-29 18:45 | 51.17565 | -0.52452 | 4010 ft | 293 kts | 252° |
| 2026-04-29 18:45 | 51.16867 | -0.55484 | 4178 ft | 295 kts | 243° |
| 2026-04-29 18:45 | 51.16052 | -0.58493 | 5216 ft | 297 kts | 243° |
| 2026-04-29 18:45 | 51.15247 | -0.61518 | 5717 ft | 297 kts | 243° |
| 2026-04-29 18:46 | 51.14444 | -0.64551 | 5933 ft | 297 kts | 243° |
| 2026-04-29 18:46 | 51.13648 | -0.67570 | 5999 ft | 295 kts | 243° |
| 2026-04-29 18:46 | 51.12850 | -0.70582 | 6008 ft | 295 kts | 243° |
| 2026-04-29 18:46 | 51.12060 | -0.73552 | 6011 ft | 296 kts | 243° |
| 2026-04-29 18:47 | 51.11257 | -0.76553 | 6009 ft | 295 kts | 243° |
| 2026-04-29 18:47 | 51.10447 | -0.79559 | 6006 ft | 295 kts | 243° |
| 2026-04-29 18:47 | 51.09637 | -0.82556 | 6010 ft | 295 kts | 243° |
| 2026-04-29 18:47 | 51.08829 | -0.85555 | 6010 ft | 295 kts | 243° |
| 2026-04-29 18:48 | 51.08023 | -0.88548 | 6006 ft | 295 kts | 243° |
| 2026-04-29 18:48 | 51.07214 | -0.91542 | 6009 ft | 295 kts | 243° |
| 2026-04-29 18:48 | 51.06406 | -0.94537 | 6017 ft | 294 kts | 243° |
| 2026-04-29 18:48 | 51.05608 | -0.97498 | 6017 ft | 295 kts | 243° |
| 2026-04-29 18:49 | 51.04802 | -1.00493 | 6012 ft | 295 kts | 242° |
| 2026-04-29 18:49 | 51.03992 | -1.03491 | 6008 ft | 295 kts | 242° |
| 2026-04-29 18:49 | 51.03177 | -1.06487 | 5991 ft | 296 kts | 242° |
| 2026-04-29 18:49 | 51.02361 | -1.09488 | 5992 ft | 296 kts | 242° |
| 2026-04-29 18:50 | 51.01546 | -1.12481 | 5990 ft | 296 kts | 242° |
| 2026-04-29 18:50 | 51.00728 | -1.15480 | 5988 ft | 296 kts | 242° |
| 2026-04-29 18:50 | 50.99911 | -1.18476 | 5983 ft | 296 kts | 242° |
| 2026-04-29 18:50 | 50.99104 | -1.21433 | 5982 ft | 296 kts | 242° |
| 2026-04-29 18:51 | 50.98286 | -1.24429 | 5984 ft | 296 kts | 242° |
| 2026-04-29 18:51 | 50.97466 | -1.27426 | 5985 ft | 296 kts | 242° |
| 2026-04-29 18:51 | 50.96644 | -1.30421 | 5982 ft | 296 kts | 242° |
| 2026-04-29 18:51 | 50.95822 | -1.33415 | 5981 ft | 296 kts | 242° |
| 2026-04-29 18:52 | 50.94887 | -1.36301 | 5985 ft | 293 kts | 235° |
| 2026-04-29 18:52 | 50.93882 | -1.39120 | 5984 ft | 294 kts | 236° |
| 2026-04-29 18:52 | 50.92882 | -1.41942 | 5991 ft | 294 kts | 235° |
| 2026-04-29 18:52 | 50.91897 | -1.44726 | 5993 ft | 293 kts | 235° |
| 2026-04-29 18:53 | 50.90900 | -1.47540 | 5997 ft | 293 kts | 235° |
| 2026-04-29 18:53 | 50.89904 | -1.50351 | 5996 ft | 292 kts | 235° |
| 2026-04-29 18:53 | 50.88907 | -1.53158 | 5993 ft | 292 kts | 235° |
| 2026-04-29 18:53 | 50.87912 | -1.55958 | 5992 ft | 292 kts | 235° |
| 2026-04-29 18:54 | 50.86913 | -1.58761 | 5992 ft | 292 kts | 235° |
| 2026-04-29 18:54 | 50.85913 | -1.61557 | 5973 ft | 292 kts | 235° |
| 2026-04-29 18:54 | 50.84912 | -1.64356 | 5970 ft | 292 kts | 235° |
| 2026-04-29 18:54 | 50.83923 | -1.67116 | 5851 ft | 291 kts | 235° |
| 2026-04-29 18:55 | 50.82950 | -1.69841 | 5721 ft | 278 kts | 235° |
| 2026-04-29 18:55 | 50.82027 | -1.72436 | 5597 ft | 265 kts | 234° |
| 2026-04-29 18:55 | 50.81143 | -1.74916 | 5455 ft | 252 kts | 234° |
| 2026-04-29 18:55 | 50.80301 | -1.77270 | 5340 ft | 241 kts | 234° |
| 2026-04-29 18:56 | 50.79477 | -1.79555 | 5214 ft | 238 kts | 234° |
| 2026-04-29 18:56 | 50.78655 | -1.81822 | 5085 ft | 237 kts | 234° |
| 2026-04-29 18:56 | 50.77994 | -1.84185 | 4971 ft | 242 kts | 252° |
| 2026-04-29 18:56 | 50.77888 | -1.86859 | 4842 ft | 247 kts | 273° |
| 2026-04-29 18:57 | 50.78041 | -1.89570 | 4725 ft | 248 kts | 272° |
| 2026-04-29 18:57 | 50.78185 | -1.92294 | 4472 ft | 249 kts | 272° |
| 2026-04-29 18:57 | 50.78321 | -1.95016 | 4158 ft | 249 kts | 272° |
| 2026-04-29 18:57 | 50.78456 | -1.97756 | 3827 ft | 251 kts | 272° |
| 2026-04-29 18:58 | 50.78593 | -2.00504 | 3493 ft | 252 kts | 272° |
| 2026-04-29 18:58 | 50.78732 | -2.03269 | 3145 ft | 252 kts | 273° |
| 2026-04-29 18:58 | 50.78714 | -2.06007 | 2893 ft | 245 kts | 249° |
| 2026-04-29 18:58 | 50.77850 | -2.08098 | 2739 ft | 224 kts | 204° |
| 2026-04-29 18:59 | 50.76483 | -2.08712 | 2594 ft | 195 kts | 161° |
| 2026-04-29 18:59 | 50.75325 | -2.07974 | 2483 ft | 169 kts | 130° |
| 2026-04-29 18:59 | 50.74688 | -2.06606 | 2414 ft | 145 kts | 107° |
| 2026-04-29 18:59 | 50.74544 | -2.05174 | 2315 ft | 125 kts | 86° |
| 2026-04-29 19:00 | 50.74721 | -2.03864 | 2251 ft | 120 kts | 78° |
| 2026-04-29 19:00 | 50.74934 | -2.02607 | 2197 ft | 117 kts | 77° |
| 2026-04-29 19:00 | 50.75140 | -2.01384 | 2101 ft | 116 kts | 77° |
| 2026-04-29 19:00 | 50.75348 | -2.00151 | 1972 ft | 116 kts | 76° |
| 2026-04-29 19:01 | 50.75554 | -1.98924 | 1824 ft | 115 kts | 76° |
| 2026-04-29 19:01 | 50.75759 | -1.97700 | 1681 ft | 115 kts | 76° |
| 2026-04-29 19:01 | 50.75964 | -1.96481 | 1528 ft | 115 kts | 76° |
| 2026-04-29 19:01 | 50.76170 | -1.95253 | 1363 ft | 116 kts | 75° |
| 2026-04-29 19:02 | 50.76376 | -1.94023 | 1201 ft | 115 kts | 73° |
| 2026-04-29 19:02 | 50.76510 | -1.93219 | 1111 ft | 115 kts | 75° |
| 2026-04-29 19:02 | 50.76781 | -1.91597 | 903 ft | 116 kts | 75° |
| 2026-04-29 19:02 | 50.76985 | -1.90381 | 742 ft | 117 kts | 74° |
| 2026-04-29 19:03 | 50.77189 | -1.89154 | 587 ft | 116 kts | 75° |
| 2026-04-29 19:03 | 50.77397 | -1.87911 | 433 ft | 116 kts | 76° |
| 2026-04-29 19:03 | 50.77605 | -1.86670 | 288 ft | 119 kts | 76° |
| 2026-04-29 19:03 | 50.77812 | -1.85438 | 63 ft | 116 kts | 76° |
| 2026-04-29 19:04 | 50.77995 | -1.84339 | 46 ft | 90 kts | 82° |